createdAt,value
2022-08-09T00:00:04.574Z,19.48
2022-08-09T00:02:49.301Z,19.42
2022-08-09T00:06:19.384Z,19.27
2022-08-09T00:08:12.944Z,19.15
2022-08-09T00:11:05.755Z,19.23
2022-08-09T00:13:43.260Z,19.35
2022-08-09T00:16:12.813Z,18.98
2022-08-09T00:18:41.076Z,19.65
2022-08-09T00:21:09.303Z,19.83
2022-08-09T00:23:55.257Z,19.90
2022-08-09T00:26:32.165Z,19.65
2022-08-09T00:29:03.565Z,20.13
2022-08-09T00:31:58.320Z,19.67
2022-08-09T00:34:26.257Z,19.90
2022-08-09T00:36:53.217Z,19.65
2022-08-09T00:40:12.362Z,18.85
2022-08-09T00:44:10.359Z,19.33
2022-08-09T00:44:55.516Z,19.42
2022-08-09T00:47:24.746Z,18.90
2022-08-09T00:49:52.643Z,19.40
2022-08-09T00:52:22.799Z,19.17
2022-08-09T00:55:01.420Z,18.77
2022-08-09T00:57:34.256Z,19.13
2022-08-09T01:00:21.859Z,19.00
2022-08-09T01:03:17.054Z,19.30
2022-08-09T01:05:55.009Z,19.58
2022-08-09T01:08:54.308Z,19.08
2022-08-09T01:11:55.491Z,18.38
2022-08-09T01:14:28.882Z,18.55
2022-08-09T01:17:02.474Z,18.60
2022-08-09T01:20:01.851Z,18.30
2022-08-09T01:22:41.789Z,18.75
2022-08-09T01:25:26.993Z,19.23
2022-08-09T01:27:57.099Z,19.00
2022-08-09T01:30:35.711Z,18.52
2022-08-09T01:33:16.890Z,19.05
2022-08-09T01:35:57.805Z,18.88
2022-08-09T01:38:30.348Z,19.73
2022-08-09T01:41:13.817Z,18.92
2022-08-09T01:43:50.657Z,19.45
2022-08-09T01:46:43.220Z,18.73
2022-08-09T01:49:17.235Z,18.95
2022-08-09T01:51:54.344Z,18.58
2022-08-09T01:54:39.407Z,19.00
2022-08-09T02:00:34.707Z,19.33
2022-08-09T02:03:02.869Z,18.63
2022-08-09T02:05:38.206Z,19.13
2022-08-09T02:08:41.054Z,18.70
2022-08-09T02:11:16.838Z,18.58
2022-08-09T02:14:06.242Z,19.30
2022-08-09T02:16:53.348Z,19.27
2022-08-09T02:19:23.868Z,19.25
2022-08-09T02:21:57.736Z,19.38
2022-08-09T02:24:29.653Z,19.83
2022-08-09T02:27:01.969Z,19.13
2022-08-09T02:29:33.942Z,18.92
2022-08-09T02:32:03.748Z,19.10
2022-08-09T02:34:40.501Z,19.08
2022-08-09T02:37:17.037Z,18.38
2022-08-09T02:39:55.110Z,18.88
2022-08-09T02:42:34.858Z,19.23
2022-08-09T02:45:15.211Z,18.80
2022-08-09T02:47:57.326Z,19.25
2022-08-09T02:50:34.802Z,18.77
2022-08-09T02:53:04.941Z,18.52
2022-08-09T02:55:46.791Z,18.65
2022-08-09T02:58:37.074Z,18.20
2022-08-09T03:01:10.892Z,18.70
2022-08-09T03:04:16.677Z,20.05
2022-08-09T03:06:31.056Z,18.63
2022-08-09T03:09:01.560Z,18.42
2022-08-09T03:12:10.999Z,18.25
2022-08-09T03:14:18.157Z,19.23
2022-08-09T03:16:48.154Z,17.73
2022-08-09T03:19:52.418Z,19.00
2022-08-09T03:22:11.901Z,17.83
2022-08-09T03:24:52.090Z,18.45
2022-08-09T03:27:21.484Z,18.15
2022-08-09T03:29:57.994Z,19.25
2022-08-09T03:32:33.892Z,18.52
2022-08-09T03:35:14.745Z,19.42
2022-08-09T03:37:56.465Z,19.52
2022-08-09T03:40:25.452Z,18.25
2022-08-09T03:42:57.850Z,18.20
2022-08-09T03:46:02.936Z,18.27
2022-08-09T03:48:11.606Z,18.17
2022-08-09T03:50:45.894Z,18.80
2022-08-09T03:53:18.274Z,19.20
2022-08-09T03:55:49.323Z,19.38
2022-08-09T03:58:21.283Z,18.58
2022-08-09T04:00:49.414Z,18.73
2022-08-09T04:03:24.535Z,18.50
2022-08-09T04:06:04.606Z,19.25
2022-08-09T04:08:32.397Z,18.92
2022-08-09T04:11:02.480Z,18.75
2022-08-09T04:14:37.246Z,19.30
2022-08-09T04:16:20.171Z,19.80
2022-08-09T04:18:49.074Z,19.60
2022-08-09T04:21:18.428Z,19.48
2022-08-09T04:23:54.335Z,19.92
2022-08-09T04:26:25.186Z,19.52
2022-08-09T04:29:10.856Z,21.52
2022-08-09T04:31:47.137Z,20.45
2022-08-09T04:34:19.196Z,21.15
2022-08-09T04:36:57.837Z,20.92
2022-08-09T04:39:25.475Z,20.77
2022-08-09T04:41:59.790Z,21.02
2022-08-09T04:44:29.426Z,20.30
2022-08-09T04:47:04.536Z,20.20
2022-08-09T04:49:52.778Z,20.40
2022-08-09T04:52:27.512Z,20.35
2022-08-09T04:54:59.519Z,19.42
2022-08-09T04:57:58.731Z,19.60
2022-08-09T05:00:14.551Z,20.20
2022-08-09T05:02:44.203Z,19.75
2022-08-09T05:05:18.924Z,19.67
2022-08-09T05:07:59.352Z,19.92
2022-08-09T05:10:27.444Z,19.50
2022-08-09T05:12:54.399Z,20.13
2022-08-09T05:15:24.580Z,20.35
2022-08-09T05:18:37.737Z,20.38
2022-08-09T05:20:52.461Z,19.75
2022-08-09T05:23:59.564Z,19.65
2022-08-09T05:26:06.625Z,20.55
2022-08-09T05:28:34.561Z,21.48
2022-08-09T05:31:01.404Z,20.63
2022-08-09T05:33:36.424Z,20.35
2022-08-09T05:36:09.376Z,21.00
2022-08-09T05:38:39.084Z,21.15
2022-08-09T05:41:06.351Z,21.00
2022-08-09T05:43:45.056Z,22.30
2022-08-09T05:46:15.867Z,21.65
2022-08-09T05:48:42.600Z,22.40
2022-08-09T05:51:30.102Z,21.73
2022-08-09T05:53:57.556Z,22.00
2022-08-09T05:56:27.090Z,22.67
2022-08-09T05:59:00.086Z,21.88
2022-08-09T06:01:33.615Z,22.55
2022-08-09T06:04:09.831Z,22.50
2022-08-09T06:06:46.773Z,22.30
2022-08-09T06:09:41.064Z,22.45
2022-08-09T06:12:05.724Z,23.45
2022-08-09T06:14:34.743Z,22.98
2022-08-09T06:17:05.070Z,22.80
2022-08-09T06:19:37.043Z,23.38
2022-08-09T06:22:06.128Z,23.40
2022-08-09T06:24:41.695Z,22.88
2022-08-09T06:27:08.565Z,23.27
2022-08-09T06:29:47.973Z,22.35
2022-08-09T06:32:59.605Z,22.73
2022-08-09T06:35:10.004Z,22.42
2022-08-09T06:37:52.837Z,23.48
2022-08-09T06:40:24.962Z,22.23
2022-08-09T06:42:51.823Z,23.50
2022-08-09T06:46:04.775Z,22.67
2022-08-09T06:48:05.769Z,23.00
2022-08-09T06:50:32.550Z,23.88
2022-08-09T06:53:00.734Z,23.40
2022-08-09T06:55:31.759Z,24.05
2022-08-09T06:58:04.369Z,24.10
2022-08-09T07:00:57.090Z,24.23
2022-08-09T07:03:27.652Z,24.02
2022-08-09T07:06:03.743Z,24.27
2022-08-09T07:08:37.161Z,24.58
2022-08-09T07:11:06.865Z,24.90
2022-08-09T07:13:45.248Z,23.58
2022-08-09T07:16:42.609Z,24.67
2022-08-09T07:19:10.623Z,23.95
2022-08-09T07:21:43.320Z,23.85
2022-08-09T07:24:32.773Z,23.95
2022-08-09T07:27:11.025Z,24.05
2022-08-09T07:29:57.213Z,25.52
2022-08-09T07:32:31.817Z,25.10
2022-08-09T07:34:59.471Z,23.63
2022-08-09T07:37:26.213Z,24.73
2022-08-09T07:39:53.766Z,25.00
2022-08-09T07:42:23.983Z,23.75
2022-08-09T07:45:02.610Z,24.27
2022-08-09T07:48:00.678Z,25.17
2022-08-09T07:50:34.619Z,25.10
2022-08-09T07:53:04.690Z,26.02
2022-08-09T07:55:41.717Z,25.25
2022-08-09T07:58:21.459Z,25.45
2022-08-09T08:00:58.847Z,25.58
2022-08-09T08:03:33.453Z,25.20
2022-08-09T08:06:04.532Z,24.85
2022-08-09T08:09:00.564Z,24.83
2022-08-09T08:12:24.166Z,24.25
2022-08-09T08:14:06.748Z,23.60
2022-08-09T08:16:34.705Z,24.70
2022-08-09T08:19:03.124Z,24.20
2022-08-09T08:21:31.305Z,25.55
2022-08-09T08:24:01.099Z,25.05
2022-08-09T08:26:42.147Z,25.48
2022-08-09T08:29:27.858Z,25.75
2022-08-09T08:32:03.986Z,24.38
2022-08-09T08:34:34.316Z,24.52
2022-08-09T08:37:02.255Z,24.90
2022-08-09T08:39:29.125Z,24.88
2022-08-09T08:42:07.272Z,24.52
2022-08-09T08:44:37.942Z,25.10
2022-08-09T08:47:12.911Z,25.25
2022-08-09T08:49:46.665Z,25.50
2022-08-09T08:55:15.152Z,25.75
2022-08-09T08:57:57.174Z,25.95
2022-08-09T09:00:30.543Z,26.20
2022-08-09T09:03:12.323Z,26.38
2022-08-09T09:05:58.397Z,25.25
2022-08-09T09:08:40.437Z,26.27
2022-08-09T09:11:17.164Z,25.67
2022-08-09T09:13:55.735Z,26.33
2022-08-09T09:16:34.487Z,26.80
2022-08-09T09:21:59.222Z,25.15
2022-08-09T09:24:29.333Z,25.33
2022-08-09T09:26:59.267Z,26.17
2022-08-09T09:29:45.976Z,26.45
2022-08-09T09:32:34.355Z,26.40
2022-08-09T09:35:10.803Z,27.10
2022-08-09T09:37:45.509Z,26.30
2022-08-09T09:40:13.051Z,26.60
2022-08-09T09:42:43.014Z,25.60
2022-08-09T09:45:14.260Z,25.77
2022-08-09T09:47:56.401Z,26.23
2022-08-09T09:50:51.020Z,26.83
2022-08-09T09:53:44.033Z,26.35
2022-08-09T09:56:30.921Z,25.75
2022-08-09T09:58:59.522Z,27.60
2022-08-09T10:01:31.073Z,26.60
2022-08-09T10:04:15.978Z,27.27
2022-08-09T10:06:51.990Z,27.33
2022-08-09T10:09:23.820Z,27.45
2022-08-09T10:12:14.355Z,28.23
2022-08-09T10:14:48.743Z,27.33
2022-08-09T10:17:39.509Z,28.67
2022-08-09T10:20:44.517Z,28.45
2022-08-09T10:23:22.024Z,29.23
2022-08-09T10:26:06.553Z,28.23
2022-08-09T10:28:37.360Z,27.77
2022-08-09T10:34:11.399Z,28.25
2022-08-09T10:36:39.867Z,29.63
2022-08-09T10:39:15.567Z,28.55
2022-08-09T10:42:10.256Z,29.90
2022-08-09T10:44:39.920Z,29.90
2022-08-09T10:48:20.413Z,28.88
2022-08-09T10:51:09.216Z,28.98
2022-08-09T10:54:06.341Z,29.10
2022-08-09T10:56:41.021Z,31.27
2022-08-09T10:59:23.325Z,30.33
2022-08-09T11:03:16.003Z,30.08
2022-08-09T11:05:13.779Z,31.10
2022-08-09T11:07:57.671Z,30.70
2022-08-09T11:10:47.080Z,30.77
2022-08-09T11:13:51.147Z,30.77
2022-08-09T11:16:34.849Z,31.45
2022-08-09T11:19:09.282Z,31.40
2022-08-09T11:21:55.001Z,31.58
2022-08-09T11:28:03.002Z,31.13
2022-08-09T11:30:32.688Z,30.75
2022-08-09T11:33:05.720Z,30.73
2022-08-09T11:35:57.647Z,31.90
2022-08-09T11:38:34.068Z,32.30
2022-08-09T11:41:12.951Z,30.48
2022-08-09T11:43:43.462Z,31.52
2022-08-09T11:46:10.947Z,30.48
2022-08-09T11:48:52.154Z,31.25
2022-08-09T11:53:03.966Z,31.45
2022-08-09T11:54:28.882Z,28.95
2022-08-09T11:58:00.102Z,30.88
2022-08-09T12:00:32.812Z,30.63
2022-08-09T12:05:48.942Z,31.13
2022-08-09T12:08:22.285Z,31.13
2022-08-09T12:10:57.787Z,30.65
2022-08-09T12:14:10.711Z,29.58
2022-08-09T12:16:37.447Z,29.83
2022-08-09T12:19:08.672Z,30.95
2022-08-09T12:21:50.487Z,30.17
2022-08-09T12:24:23.684Z,29.88
2022-08-09T12:29:12.463Z,29.60
2022-08-09T12:29:44.546Z,29.92
2022-08-09T12:32:26.481Z,29.08
2022-08-09T12:35:03.162Z,29.85
2022-08-09T12:37:49.633Z,29.95
2022-08-09T12:40:28.458Z,30.73
2022-08-09T12:42:57.126Z,30.67
2022-08-09T12:45:35.077Z,30.40
2022-08-09T12:48:19.840Z,31.42
2022-08-09T12:50:48.767Z,29.25
2022-08-09T12:53:41.223Z,31.58
2022-08-09T12:56:39.470Z,29.55
2022-08-09T12:59:13.829Z,30.27
2022-08-09T13:01:48.823Z,30.63
2022-08-09T13:04:36.293Z,29.88
2022-08-09T13:07:16.700Z,30.58
2022-08-09T13:09:55.938Z,28.25
2022-08-09T13:12:29.296Z,30.00
2022-08-09T13:15:07.383Z,30.25
2022-08-09T13:18:03.341Z,30.73
2022-08-09T13:20:37.660Z,29.95
2022-08-09T13:24:06.291Z,30.27
2022-08-09T13:26:38.426Z,30.08
2022-08-09T13:29:20.623Z,29.65
2022-08-09T13:32:17.772Z,29.08
2022-08-09T13:34:52.284Z,28.38
2022-08-09T13:37:51.297Z,27.98
2022-08-09T13:41:56.660Z,29.80
2022-08-09T13:42:59.417Z,29.58
2022-08-09T13:45:32.299Z,29.83
2022-08-09T13:48:17.123Z,29.48
2022-08-09T13:50:43.933Z,30.10
2022-08-09T13:53:10.792Z,29.52
2022-08-09T13:55:37.737Z,29.92
2022-08-09T13:58:05.262Z,29.95
2022-08-09T14:00:48.357Z,30.55
2022-08-09T14:04:02.602Z,30.50
2022-08-09T14:06:25.722Z,30.45
2022-08-09T14:08:54.136Z,31.10
2022-08-09T14:11:22.261Z,30.80
2022-08-09T14:14:23.035Z,30.95
2022-08-09T14:16:36.820Z,29.95
2022-08-09T14:19:04.007Z,31.13
2022-08-09T14:21:32.024Z,31.58
2022-08-09T14:24:01.281Z,31.73
2022-08-09T14:26:37.943Z,31.55
2022-08-09T14:30:15.192Z,32.38
2022-08-09T14:31:55.403Z,31.48
2022-08-09T14:34:32.261Z,31.77
2022-08-09T14:37:08.023Z,31.42
2022-08-09T14:39:47.491Z,30.90
2022-08-09T14:42:30.204Z,31.13
2022-08-09T14:46:40.386Z,31.40
2022-08-09T14:47:58.129Z,31.75
2022-08-09T14:50:34.977Z,29.52
2022-08-09T14:53:12.001Z,29.85
2022-08-09T14:55:42.176Z,31.00
2022-08-09T14:58:15.378Z,30.95
2022-08-09T15:00:42.598Z,30.33
2022-08-09T15:03:16.694Z,29.98
2022-08-09T15:05:50.235Z,28.58
2022-08-09T15:08:20.704Z,29.08
2022-08-09T15:11:00.838Z,27.88
2022-08-09T15:13:56.742Z,27.33
2022-08-09T15:16:22.222Z,28.23
2022-08-09T15:18:49.859Z,27.38
2022-08-09T15:21:55.135Z,29.48
2022-08-09T15:24:11.396Z,28.48
2022-08-09T15:26:45.896Z,29.23
2022-08-09T15:31:01.195Z,29.08
2022-08-09T15:31:59.976Z,28.15
2022-08-09T15:34:34.223Z,27.52
2022-08-09T15:37:03.809Z,28.30
2022-08-09T15:39:44.006Z,27.85
2022-08-09T15:42:18.888Z,29.05
2022-08-09T15:44:46.892Z,28.17
2022-08-09T15:47:14.488Z,29.00
2022-08-09T15:50:03.950Z,29.27
2022-08-09T15:52:34.827Z,28.75
2022-08-09T15:55:03.694Z,28.85
2022-08-09T15:57:34.694Z,28.40
2022-08-09T16:00:09.714Z,28.83
2022-08-09T16:02:41.834Z,28.75
2022-08-09T16:05:09.167Z,29.50
2022-08-09T16:07:39.632Z,28.95
2022-08-09T16:10:38.440Z,28.58
2022-08-09T16:13:00.549Z,28.55
2022-08-09T16:16:12.310Z,27.95
2022-08-09T16:18:14.739Z,27.88
2022-08-09T16:20:41.553Z,28.13
2022-08-09T16:23:12.545Z,27.98
2022-08-09T16:25:40.789Z,28.35
2022-08-09T16:28:08.321Z,28.27
2022-08-09T16:30:40.961Z,28.05
2022-08-09T16:33:16.013Z,27.98
2022-08-09T16:35:55.988Z,28.33
2022-08-09T16:38:24.810Z,28.90
2022-08-09T16:40:52.154Z,28.90
2022-08-09T16:43:18.961Z,28.20
2022-08-09T16:45:53.388Z,27.58
2022-08-09T16:48:38.344Z,27.48
2022-08-09T16:51:13.796Z,28.92
2022-08-09T16:54:02.354Z,28.55
2022-08-09T16:56:30.851Z,28.75
2022-08-09T16:58:58.880Z,29.00
2022-08-09T17:01:26.096Z,27.85
2022-08-09T17:03:54.286Z,28.40
2022-08-09T17:06:29.098Z,29.35
2022-08-09T17:09:43.860Z,28.63
2022-08-09T17:11:52.433Z,28.05
2022-08-09T17:14:26.965Z,28.08
2022-08-09T17:17:01.529Z,28.15
2022-08-09T17:19:47.272Z,28.80
2022-08-09T17:22:23.821Z,29.35
2022-08-09T17:24:54.963Z,27.98
2022-08-09T17:27:22.821Z,28.80
2022-08-09T17:29:50.945Z,28.52
2022-08-09T17:32:20.388Z,27.00
2022-08-09T17:35:10.517Z,28.98
2022-08-09T17:38:11.325Z,29.25
2022-08-09T17:40:31.918Z,30.50
2022-08-09T17:43:11.262Z,31.25
2022-08-09T17:46:04.029Z,30.73
2022-08-09T17:48:35.330Z,31.15
2022-08-09T17:51:17.597Z,31.98
2022-08-09T17:53:55.350Z,31.70
2022-08-09T17:56:29.080Z,32.53
2022-08-09T17:59:03.231Z,32.42
2022-08-09T18:02:03.430Z,32.38
2022-08-09T18:04:19.629Z,31.63
2022-08-09T18:06:49.793Z,30.73
2022-08-09T18:09:22.806Z,30.63
2022-08-09T18:12:05.334Z,28.13
2022-08-09T18:14:49.479Z,26.20
2022-08-09T18:18:01.699Z,26.92
2022-08-09T18:20:54.131Z,27.15
2022-08-09T18:22:55.345Z,26.10
2022-08-09T18:25:52.306Z,25.50
2022-08-09T18:28:18.994Z,26.08
2022-08-09T18:30:57.313Z,25.85
2022-08-09T18:33:24.293Z,24.92
2022-08-09T18:36:00.198Z,25.98
2022-08-09T18:38:28.322Z,25.40
2022-08-09T18:40:55.519Z,26.33
2022-08-09T18:43:23.399Z,25.00
2022-08-09T18:46:50.611Z,26.27
2022-08-09T18:48:38.226Z,25.95
2022-08-09T18:51:09.446Z,22.98
2022-08-09T18:53:56.639Z,23.40
2022-08-09T18:56:27.180Z,22.67
2022-08-09T18:58:56.912Z,22.35
2022-08-09T19:01:25.443Z,23.13
2022-08-09T19:04:06.380Z,22.80
2022-08-09T19:06:38.761Z,23.27
2022-08-09T19:09:07.633Z,23.08
2022-08-09T19:11:38.010Z,22.85
2022-08-09T19:14:06.817Z,23.05
2022-08-09T19:16:36.368Z,22.67
2022-08-09T19:19:25.195Z,23.38
2022-08-09T19:21:52.267Z,24.42
2022-08-09T19:25:09.171Z,22.63
2022-08-09T19:27:22.123Z,22.55
2022-08-09T19:30:23.105Z,22.50
2022-08-09T19:32:36.725Z,23.65
2022-08-09T19:35:04.517Z,22.80
2022-08-09T19:37:41.102Z,22.83
2022-08-09T19:40:21.302Z,23.38
2022-08-09T19:42:49.654Z,25.67
2022-08-09T19:45:18.916Z,23.52
2022-08-09T19:47:47.389Z,22.58
2022-08-09T19:50:51.184Z,23.13
2022-08-09T19:53:04.388Z,22.95
2022-08-09T19:55:52.952Z,23.33
2022-08-09T19:58:29.730Z,23.30
2022-08-09T20:00:57.766Z,22.60
2022-08-09T20:04:10.708Z,23.13
2022-08-09T20:06:23.428Z,23.67
2022-08-09T20:08:56.685Z,23.42
2022-08-09T20:11:26.549Z,22.80
2022-08-09T20:13:55.248Z,22.38
2022-08-09T20:16:33.755Z,23.08
2022-08-09T20:19:49.001Z,23.23
2022-08-09T20:21:56.225Z,22.42
2022-08-09T20:24:31.822Z,23.45
2022-08-09T20:27:02.668Z,23.75
2022-08-09T20:29:37.802Z,22.55
2022-08-09T20:32:30.808Z,22.00
2022-08-09T20:34:53.887Z,22.95
2022-08-09T20:37:21.548Z,22.73
2022-08-09T20:40:15.847Z,23.02
2022-08-09T20:42:37.741Z,22.15
2022-08-09T20:45:59.543Z,22.45
2022-08-09T20:47:54.172Z,21.92
2022-08-09T20:50:47.730Z,21.50
2022-08-09T20:53:18.776Z,21.70
2022-08-09T20:56:00.609Z,21.75
2022-08-09T20:58:32.824Z,22.13
2022-08-09T21:01:32.282Z,20.92
2022-08-09T21:05:48.298Z,21.42
2022-08-09T21:06:36.232Z,22.30
2022-08-09T21:09:03.571Z,21.45
2022-08-09T21:14:17.559Z,21.52
2022-08-09T21:16:45.823Z,21.85
2022-08-09T21:20:18.395Z,21.25
2022-08-09T21:22:00.196Z,21.33
2022-08-09T21:24:32.590Z,22.38
2022-08-09T21:27:01.052Z,21.77
2022-08-09T21:29:49.585Z,21.17
2022-08-09T21:32:18.822Z,21.27
2022-08-09T21:34:49.117Z,21.60
2022-08-09T21:37:18.039Z,21.38
2022-08-09T21:39:45.296Z,20.70
2022-08-09T21:42:17.640Z,20.73
2022-08-09T21:44:55.576Z,21.15
2022-08-09T21:47:22.393Z,21.55
2022-08-09T21:49:49.545Z,21.67
2022-08-09T21:52:20.576Z,20.70
2022-08-09T21:54:49.468Z,21.33
2022-08-09T21:57:37.828Z,21.70
2022-08-09T22:00:10.150Z,21.48
2022-08-09T22:02:40.295Z,21.23
2022-08-09T22:05:22.818Z,21.20
2022-08-09T22:07:53.415Z,21.20
2022-08-09T22:10:23.284Z,21.52
2022-08-09T22:12:52.213Z,21.65
2022-08-09T22:15:20.651Z,21.90
2022-08-09T22:17:50.166Z,20.55
2022-08-09T22:20:21.837Z,21.05
2022-08-09T22:22:54.614Z,21.35
2022-08-09T22:26:05.282Z,20.02
2022-08-09T22:28:08.149Z,21.13
2022-08-09T22:30:34.885Z,20.50
2022-08-09T22:33:09.421Z,20.08
2022-08-09T22:36:01.653Z,20.63
2022-08-09T22:38:23.750Z,20.30
2022-08-09T22:40:57.877Z,20.40
2022-08-09T22:44:01.496Z,20.45
2022-08-09T22:48:10.455Z,20.60
2022-08-09T22:49:05.488Z,20.05
2022-08-09T22:51:38.517Z,20.65
2022-08-09T22:54:07.985Z,19.98
2022-08-09T22:56:38.153Z,21.48
2022-08-09T22:59:58.224Z,20.00
2022-08-09T23:01:55.316Z,19.95
2022-08-09T23:04:22.379Z,20.42
2022-08-09T23:07:10.924Z,20.30
2022-08-09T23:09:39.118Z,19.70
2022-08-09T23:12:06.015Z,19.75
2022-08-09T23:14:42.387Z,19.90
2022-08-09T23:17:10.633Z,20.17
2022-08-09T23:20:06.186Z,20.70
2022-08-09T23:22:27.261Z,20.02
2022-08-09T23:24:53.946Z,20.15
2022-08-09T23:27:20.749Z,20.38
2022-08-09T23:29:47.684Z,20.20
2022-08-09T23:32:14.523Z,19.77
2022-08-09T23:34:41.217Z,21.50
2022-08-09T23:37:08.419Z,20.63
2022-08-09T23:39:35.259Z,19.90
2022-08-09T23:42:02.096Z,19.80
2022-08-09T23:44:28.809Z,20.10
2022-08-09T23:46:57.378Z,20.30
2022-08-09T23:49:25.389Z,20.48
2022-08-09T23:51:53.364Z,20.50
2022-08-09T23:54:20.980Z,20.52
2022-08-09T23:56:55.873Z,20.25
2022-08-09T23:59:24.331Z,20.55
